createdAt,value
2017-09-08T00:00:44.924Z,17.53
2017-09-08T00:02:47.458Z,15.83
2017-09-08T00:04:49.931Z,11.93
2017-09-08T00:06:52.404Z,16.30
2017-09-08T00:08:54.968Z,12.97
2017-09-08T00:10:57.404Z,12.93
2017-09-08T00:12:59.873Z,12.50
2017-09-08T00:15:02.356Z,18.17
2017-09-08T00:17:04.793Z,18.97
2017-09-08T00:19:07.404Z,19.30
2017-09-08T00:21:09.880Z,13.40
2017-09-08T00:23:12.326Z,19.83
2017-09-08T00:25:14.793Z,13.93
2017-09-08T00:27:17.239Z,13.90
2017-09-08T00:29:19.749Z,14.93
2017-09-08T00:31:22.370Z,13.33
2017-09-08T00:33:24.965Z,19.50
2017-09-08T00:35:27.532Z,16.73
2017-09-08T00:37:30.068Z,12.80
2017-09-08T00:39:32.779Z,20.77
2017-09-08T00:41:35.352Z,14.77
2017-09-08T00:43:37.948Z,12.20
2017-09-08T00:45:40.440Z,21.30
2017-09-08T00:47:42.973Z,13.03
2017-09-08T00:49:45.540Z,19.77
2017-09-08T00:51:48.810Z,17.80
2017-09-08T00:53:51.325Z,18.30
2017-09-08T00:55:53.810Z,11.23
2017-09-08T00:57:56.276Z,12.37
2017-09-08T00:59:58.757Z,16.30
2017-09-08T01:02:01.290Z,12.63
2017-09-08T01:04:03.735Z,12.13
2017-09-08T01:06:06.189Z,13.23
2017-09-08T01:08:08.653Z,13.33
2017-09-08T01:10:11.108Z,16.13
2017-09-08T01:12:13.563Z,20.53
2017-09-08T01:14:16.084Z,16.53
2017-09-08T01:16:18.574Z,12.70
2017-09-08T01:18:21.046Z,14.33
2017-09-08T01:20:23.596Z,15.07
2017-09-08T01:22:26.098Z,14.13
2017-09-08T01:24:28.539Z,15.00
2017-09-08T01:26:31.134Z,9.77
2017-09-08T01:28:33.648Z,15.63
2017-09-08T01:30:36.120Z,16.53
2017-09-08T01:32:38.737Z,13.03
2017-09-08T01:34:41.217Z,13.77
2017-09-08T01:36:43.724Z,15.77
2017-09-08T01:38:46.447Z,15.63
2017-09-08T01:40:48.976Z,8.90
2017-09-08T01:42:51.588Z,14.77
2017-09-08T01:44:54.136Z,12.43
2017-09-08T01:46:56.732Z,10.40
2017-09-08T01:48:59.190Z,15.93
2017-09-08T01:51:01.735Z,15.50
2017-09-08T01:53:05.981Z,15.13
2017-09-08T01:55:08.596Z,15.47
2017-09-08T01:57:11.089Z,14.30
2017-09-08T01:59:13.543Z,15.57
2017-09-08T02:01:16.075Z,14.03
2017-09-08T02:03:18.585Z,15.33
2017-09-08T02:05:21.120Z,18.80
2017-09-08T02:07:23.735Z,14.60
2017-09-08T02:09:26.254Z,21.73
2017-09-08T02:11:28.791Z,13.63
2017-09-08T02:13:31.476Z,11.50
2017-09-08T02:15:33.954Z,16.67
2017-09-08T02:17:36.436Z,12.50
2017-09-08T02:19:38.946Z,12.97
2017-09-08T02:21:47.148Z,16.67
2017-09-08T02:23:50.547Z,15.30
2017-09-08T02:25:53.044Z,11.43
2017-09-08T02:27:55.526Z,14.13
2017-09-08T02:29:57.999Z,11.90
2017-09-08T02:32:00.444Z,9.73
2017-09-08T02:34:02.929Z,16.70
2017-09-08T02:36:05.426Z,18.60
2017-09-08T02:38:07.883Z,13.17
2017-09-08T02:40:10.429Z,12.17
2017-09-08T02:42:12.972Z,14.30
2017-09-08T02:44:15.536Z,13.57
2017-09-08T02:46:18.015Z,11.10
2017-09-08T02:48:20.487Z,21.40
2017-09-08T02:50:22.930Z,10.50
2017-09-08T02:52:25.441Z,12.00
2017-09-08T02:54:29.648Z,16.97
2017-09-08T02:56:32.188Z,11.20
2017-09-08T02:58:34.809Z,13.60
2017-09-08T03:00:37.355Z,17.17
2017-09-08T03:02:39.969Z,14.03
2017-09-08T03:04:42.464Z,18.23
2017-09-08T03:06:45.024Z,14.73
2017-09-08T03:08:47.650Z,16.73
2017-09-08T03:10:50.204Z,14.57
2017-09-08T03:12:52.668Z,13.27
2017-09-08T03:14:55.145Z,11.63
2017-09-08T03:16:57.610Z,9.87
2017-09-08T03:19:00.064Z,11.93
2017-09-08T03:21:02.613Z,17.47
2017-09-08T03:23:05.186Z,10.47
2017-09-08T03:25:07.653Z,14.00
2017-09-08T03:27:10.178Z,9.40
2017-09-08T03:29:12.684Z,10.40
2017-09-08T03:31:15.246Z,11.73
2017-09-08T03:33:17.761Z,11.17
2017-09-08T03:35:20.528Z,11.53
2017-09-08T03:37:22.980Z,14.60
2017-09-08T03:39:25.518Z,15.60
2017-09-08T03:41:28.024Z,14.33
2017-09-08T03:43:30.560Z,11.43
2017-09-08T03:45:32.988Z,14.60
2017-09-08T03:47:35.552Z,13.20
2017-09-08T03:49:38.044Z,11.00
2017-09-08T03:51:40.687Z,10.00
2017-09-08T03:53:43.180Z,17.60
2017-09-08T03:55:45.995Z,9.70
2017-09-08T03:57:48.467Z,14.33
2017-09-08T03:59:50.994Z,16.03
2017-09-08T04:01:53.461Z,19.27
2017-09-08T04:03:56.041Z,14.53
2017-09-08T04:05:58.622Z,17.50
2017-09-08T04:08:01.225Z,9.20
2017-09-08T04:10:03.664Z,13.60
2017-09-08T04:12:06.269Z,14.73
2017-09-08T04:14:08.766Z,14.27
2017-09-08T04:16:11.241Z,11.00
2017-09-08T04:18:13.769Z,16.93
2017-09-08T04:20:16.293Z,18.97
2017-09-08T04:22:18.753Z,14.30
2017-09-08T04:24:21.394Z,16.97
2017-09-08T04:26:23.832Z,11.80
2017-09-08T04:28:26.425Z,18.63
2017-09-08T04:30:28.942Z,13.90
2017-09-08T04:32:31.433Z,9.93
2017-09-08T04:34:33.880Z,13.67
2017-09-08T04:36:36.380Z,20.70
2017-09-08T04:38:39.975Z,9.23
2017-09-08T04:40:42.479Z,10.80
2017-09-08T04:42:44.977Z,9.00
2017-09-08T04:44:47.468Z,13.00
2017-09-08T04:46:49.965Z,11.53
2017-09-08T04:48:52.684Z,10.97
2017-09-08T04:50:55.225Z,12.97
2017-09-08T04:52:57.670Z,12.37
2017-09-08T04:55:00.164Z,13.23
2017-09-08T04:57:02.768Z,14.77
2017-09-08T04:59:05.244Z,8.40
2017-09-08T05:01:07.800Z,9.03
2017-09-08T05:03:10.381Z,14.97
2017-09-08T05:05:13.032Z,9.03
2017-09-08T05:07:15.633Z,8.70
2017-09-08T05:09:18.165Z,11.27
2017-09-08T05:11:20.631Z,20.90
2017-09-08T05:13:23.156Z,10.73
2017-09-08T05:15:25.668Z,12.70
2017-09-08T05:17:28.168Z,9.77
2017-09-08T05:19:30.704Z,10.90
2017-09-08T05:21:33.158Z,11.60
2017-09-08T05:23:35.692Z,12.73
2017-09-08T05:25:38.193Z,12.23
2017-09-08T05:27:40.683Z,12.03
2017-09-08T05:29:43.144Z,14.63
2017-09-08T05:31:45.719Z,13.80
2017-09-08T05:33:48.177Z,8.67
2017-09-08T05:35:50.721Z,6.90
2017-09-08T05:37:53.264Z,10.07
2017-09-08T05:39:55.728Z,12.00
2017-09-08T05:41:58.276Z,7.27
2017-09-08T05:44:00.780Z,7.77
2017-09-08T05:46:03.281Z,17.07
2017-09-08T05:48:05.851Z,13.57
2017-09-08T05:50:08.366Z,8.03
2017-09-08T05:52:10.999Z,10.57
2017-09-08T05:54:14.522Z,10.50
2017-09-08T05:56:17.036Z,7.23
2017-09-08T05:58:19.543Z,27.07
2017-09-08T06:00:22.101Z,8.90
2017-09-08T06:02:24.770Z,15.07
2017-09-08T06:04:27.253Z,8.93
2017-09-08T06:06:29.745Z,19.20
2017-09-08T06:08:32.308Z,13.63
2017-09-08T06:10:34.757Z,13.03
2017-09-08T06:12:37.300Z,9.93
2017-09-08T06:14:39.800Z,10.03
2017-09-08T06:16:42.353Z,8.37
2017-09-08T06:18:46.392Z,7.90
2017-09-08T06:20:49.001Z,11.43
2017-09-08T06:22:52.306Z,13.47
2017-09-08T06:24:54.748Z,17.50
2017-09-08T06:26:57.229Z,13.23
2017-09-08T06:28:59.794Z,6.20
2017-09-08T06:31:02.328Z,9.87
2017-09-08T06:33:04.902Z,8.00
2017-09-08T06:35:07.411Z,12.57
2017-09-08T06:37:09.851Z,8.50
2017-09-08T06:39:12.522Z,13.80
2017-09-08T06:41:15.056Z,8.00
2017-09-08T06:43:17.560Z,7.23
2017-09-08T06:45:20.130Z,13.00
2017-09-08T06:47:22.565Z,11.50
2017-09-08T06:49:25.013Z,8.23
2017-09-08T06:51:27.547Z,15.10
2017-09-08T06:53:29.974Z,9.50
2017-09-08T06:55:32.485Z,7.43
2017-09-08T06:57:35.122Z,8.90
2017-09-08T06:59:37.633Z,5.43
2017-09-08T07:01:40.146Z,8.97
2017-09-08T07:03:42.609Z,12.20
2017-09-08T07:05:45.128Z,7.17
2017-09-08T07:07:47.714Z,12.13
2017-09-08T07:09:50.255Z,13.40
2017-09-08T07:11:52.860Z,12.00
2017-09-08T07:13:55.406Z,9.00
2017-09-08T07:15:57.930Z,15.53
2017-09-08T07:18:00.408Z,6.90
2017-09-08T07:20:02.912Z,12.90
2017-09-08T07:22:05.392Z,8.70
2017-09-08T07:24:07.887Z,9.70
2017-09-08T07:26:10.459Z,7.10
2017-09-08T07:28:12.996Z,9.40
2017-09-08T07:30:15.512Z,4.33
2017-09-08T07:32:18.052Z,7.67
2017-09-08T07:34:20.546Z,10.93
2017-09-08T07:36:23.124Z,12.30
2017-09-08T07:38:25.583Z,10.33
2017-09-08T07:40:28.071Z,6.63
2017-09-08T07:42:30.611Z,10.57
2017-09-08T07:44:33.202Z,7.23
2017-09-08T07:46:35.752Z,8.10
2017-09-08T07:48:38.225Z,5.47
2017-09-08T07:50:40.897Z,12.10
2017-09-08T07:52:43.493Z,12.30
2017-09-08T07:54:46.079Z,10.03
2017-09-08T07:56:48.557Z,9.87
2017-09-08T07:58:51.103Z,10.20
2017-09-08T08:00:53.629Z,7.07
2017-09-08T08:02:56.155Z,13.43
2017-09-08T08:04:58.723Z,5.73
2017-09-08T08:07:01.200Z,7.90
2017-09-08T08:09:03.799Z,13.93
2017-09-08T08:11:06.378Z,7.30
2017-09-08T08:13:08.843Z,9.43
2017-09-08T08:15:11.450Z,17.17
2017-09-08T08:17:14.053Z,12.53
2017-09-08T08:19:16.578Z,6.10
2017-09-08T08:21:19.096Z,3.90
2017-09-08T08:23:21.652Z,12.43
2017-09-08T08:25:24.139Z,13.13
2017-09-08T08:27:26.586Z,10.57
2017-09-08T08:29:29.144Z,8.67
2017-09-08T08:31:31.621Z,10.23
2017-09-08T08:33:34.122Z,6.97
2017-09-08T08:35:36.727Z,8.23
2017-09-08T08:37:39.377Z,7.97
2017-09-08T08:39:41.841Z,8.30
2017-09-08T08:41:44.314Z,5.27
2017-09-08T08:43:46.763Z,8.33
2017-09-08T08:45:49.226Z,5.20
2017-09-08T08:47:51.705Z,9.83
2017-09-08T08:49:54.271Z,8.97
2017-09-08T08:51:56.729Z,7.77
2017-09-08T08:53:59.303Z,9.10
2017-09-08T08:56:01.809Z,11.90
2017-09-08T08:58:04.266Z,10.80
2017-09-08T09:00:06.741Z,7.47
2017-09-08T09:02:09.234Z,12.10
2017-09-08T09:04:11.790Z,10.70
2017-09-08T09:06:14.356Z,16.77
2017-09-08T09:08:16.841Z,10.60
2017-09-08T09:10:19.358Z,5.60
2017-09-08T09:12:21.817Z,7.03
2017-09-08T09:14:24.300Z,8.67
2017-09-08T09:16:26.736Z,8.33
2017-09-08T09:18:29.200Z,7.93
2017-09-08T09:20:31.733Z,8.77
2017-09-08T09:22:34.277Z,11.07
2017-09-08T09:24:37.004Z,7.70
2017-09-08T09:26:39.574Z,8.70
2017-09-08T09:28:42.091Z,7.67
2017-09-08T09:30:44.600Z,5.93
2017-09-08T09:32:47.168Z,8.80
2017-09-08T09:34:49.663Z,6.37
2017-09-08T09:36:52.222Z,6.87
2017-09-08T09:38:54.806Z,11.17
2017-09-08T09:40:57.373Z,11.83
2017-09-08T09:42:59.925Z,8.07
2017-09-08T09:45:02.440Z,7.70
2017-09-08T09:47:04.896Z,11.13
2017-09-08T09:49:07.367Z,13.30
2017-09-08T09:51:09.900Z,11.47
2017-09-08T09:53:12.537Z,7.23
2017-09-08T09:55:15.090Z,10.50
2017-09-08T09:57:17.672Z,17.53
2017-09-08T09:59:20.228Z,18.50
2017-09-08T10:01:22.815Z,7.70
2017-09-08T10:03:25.538Z,14.17
2017-09-08T10:05:28.048Z,7.03
2017-09-08T10:07:30.582Z,7.57
2017-09-08T10:09:33.098Z,5.60
2017-09-08T10:11:35.601Z,4.80
2017-09-08T10:13:38.096Z,7.63
2017-09-08T10:15:40.572Z,5.57
2017-09-08T10:17:43.038Z,10.83
2017-09-08T10:19:45.510Z,12.17
2017-09-08T10:21:48.115Z,10.55
2017-09-08T10:23:50.568Z,8.07
2017-09-08T10:25:53.056Z,8.53
2017-09-08T10:27:55.523Z,12.00
2017-09-08T10:29:58.012Z,6.10
2017-09-08T10:32:00.509Z,8.37
2017-09-08T10:34:02.972Z,10.30
2017-09-08T10:36:05.610Z,11.67
2017-09-08T10:38:08.093Z,14.60
2017-09-08T10:40:10.552Z,14.10
2017-09-08T10:42:13.235Z,3.63
2017-09-08T10:44:15.843Z,7.93
2017-09-08T10:46:18.337Z,8.10
2017-09-08T10:48:20.812Z,8.83
2017-09-08T10:50:23.420Z,10.30
2017-09-08T10:52:25.988Z,9.37
2017-09-08T10:54:28.467Z,6.77
2017-09-08T10:56:31.012Z,6.33
2017-09-08T10:58:33.602Z,11.80
2017-09-08T11:00:36.144Z,5.20
2017-09-08T11:02:38.742Z,4.83
2017-09-08T11:04:41.271Z,4.77
2017-09-08T11:06:43.796Z,5.73
2017-09-08T11:08:46.254Z,9.63
2017-09-08T11:10:48.748Z,10.70
2017-09-08T11:12:51.289Z,7.17
2017-09-08T11:14:53.772Z,6.93
2017-09-08T11:16:56.224Z,5.80
2017-09-08T11:18:58.707Z,7.63
2017-09-08T11:21:01.216Z,7.67
2017-09-08T11:23:03.681Z,7.70
2017-09-08T11:25:06.163Z,9.80
2017-09-08T11:27:08.732Z,7.00
2017-09-08T11:29:11.301Z,4.00
2017-09-08T11:31:13.758Z,11.03
2017-09-08T11:33:21.908Z,3.60
2017-09-08T11:35:30.130Z,6.13
2017-09-08T11:37:32.576Z,9.00
2017-09-08T11:39:35.116Z,5.57
2017-09-08T11:41:37.574Z,7.23
2017-09-08T11:43:40.056Z,5.13
2017-09-08T11:45:42.582Z,3.00
2017-09-08T11:47:45.121Z,5.20
2017-09-08T11:49:47.593Z,5.80
2017-09-08T11:51:50.057Z,3.43
2017-09-08T11:53:52.583Z,4.17
2017-09-08T11:55:55.158Z,7.60
2017-09-08T11:57:57.656Z,5.87
2017-09-08T12:00:00.269Z,6.67
2017-09-08T12:02:02.717Z,8.33
2017-09-08T12:04:05.231Z,8.87
2017-09-08T12:06:07.804Z,11.13
2017-09-08T12:08:10.241Z,4.20
2017-09-08T12:10:12.792Z,6.77
2017-09-08T12:12:15.296Z,9.93
2017-09-08T12:14:17.733Z,6.70
2017-09-08T12:16:20.225Z,5.03
2017-09-08T12:18:22.733Z,6.97
2017-09-08T12:20:25.209Z,4.30
2017-09-08T12:22:27.795Z,12.90
2017-09-08T12:24:30.333Z,7.27
2017-09-08T12:26:32.840Z,6.73
2017-09-08T12:28:35.316Z,3.57
2017-09-08T12:30:37.764Z,5.23
2017-09-08T12:32:40.215Z,6.63
2017-09-08T12:34:42.810Z,11.53
2017-09-08T12:36:45.236Z,5.77
2017-09-08T12:38:47.762Z,10.77
2017-09-08T12:40:50.228Z,5.50
2017-09-08T12:42:52.668Z,4.20
2017-09-08T12:44:55.134Z,3.20
2017-09-08T12:46:57.594Z,5.53
2017-09-08T12:49:00.056Z,6.17
2017-09-08T12:51:02.547Z,6.37
2017-09-08T12:53:05.104Z,5.07
2017-09-08T12:55:07.550Z,3.83
2017-09-08T12:57:10.039Z,2.67
2017-09-08T12:59:12.493Z,3.40
2017-09-08T13:01:14.953Z,5.07
2017-09-08T13:03:17.388Z,4.60
2017-09-08T13:05:19.962Z,11.83
2017-09-08T13:07:22.446Z,8.80
2017-09-08T13:09:24.902Z,3.87
2017-09-08T13:11:27.365Z,4.70
2017-09-08T13:13:29.880Z,3.10
2017-09-08T13:15:32.388Z,4.53
2017-09-08T13:17:34.893Z,9.33
2017-09-08T13:19:38.332Z,5.43
2017-09-08T13:21:40.852Z,4.70
2017-09-08T13:23:43.340Z,5.30
2017-09-08T13:25:45.894Z,2.67
2017-09-08T13:27:48.402Z,2.50
2017-09-08T13:29:50.902Z,2.80
2017-09-08T13:31:53.362Z,1.97
2017-09-08T13:33:55.841Z,2.47
2017-09-08T13:35:58.346Z,6.53
2017-09-08T13:38:01.048Z,5.50
2017-09-08T13:40:03.544Z,4.30
2017-09-08T13:42:06.025Z,3.90
2017-09-08T13:44:08.624Z,4.33
2017-09-08T13:46:11.108Z,5.27
2017-09-08T13:48:13.584Z,5.17
2017-09-08T13:50:16.139Z,6.30
2017-09-08T13:52:18.579Z,1.20
2017-09-08T13:54:21.048Z,4.87
2017-09-08T13:56:23.579Z,4.03
2017-09-08T13:58:26.145Z,11.97
2017-09-08T14:00:28.659Z,6.43
2017-09-08T14:02:31.108Z,4.50
2017-09-08T14:04:33.633Z,2.30
2017-09-08T14:06:36.222Z,2.10
2017-09-08T14:08:39.705Z,2.03
2017-09-08T14:10:42.237Z,1.73
2017-09-08T14:12:44.684Z,5.53
2017-09-08T14:14:47.190Z,2.10
2017-09-08T14:16:49.699Z,10.23
2017-09-08T14:18:52.179Z,2.50
2017-09-08T14:20:54.742Z,2.37
2017-09-08T14:22:57.188Z,2.90
2017-09-08T14:24:59.782Z,4.23
2017-09-08T14:27:02.252Z,3.20
2017-09-08T14:29:04.690Z,3.40
2017-09-08T14:31:07.173Z,1.80
2017-09-08T14:33:09.621Z,3.40
2017-09-08T14:35:12.427Z,2.43
2017-09-08T14:37:15.035Z,2.20
2017-09-08T14:39:17.483Z,3.33
2017-09-08T14:41:19.980Z,2.70
2017-09-08T14:43:22.628Z,2.40
2017-09-08T14:45:25.062Z,4.20
2017-09-08T14:47:27.501Z,2.33
2017-09-08T16:11:03.558Z,3.13
2017-09-08T16:13:06.094Z,3.63
2017-09-08T16:15:08.644Z,1.60
2017-09-08T16:17:12.009Z,2.90
2017-09-08T16:19:14.516Z,6.10
2017-09-08T16:21:17.108Z,3.30
2017-09-08T16:23:19.677Z,3.93
2017-09-08T16:25:22.249Z,7.00
2017-09-08T16:27:24.679Z,4.33
2017-09-08T16:29:27.180Z,5.13
2017-09-08T16:31:29.761Z,1.70
2017-09-08T16:33:32.223Z,2.27
2017-09-08T16:35:34.714Z,2.50
2017-09-08T16:37:37.192Z,3.13
2017-09-08T16:39:39.633Z,5.90
2017-09-08T16:41:42.132Z,4.30
2017-09-08T16:43:44.590Z,7.87
2017-09-08T16:45:47.064Z,7.27
2017-09-08T16:47:49.649Z,5.87
2017-09-08T16:49:52.105Z,2.63
2017-09-08T16:51:54.544Z,2.07
2017-09-08T16:53:57.009Z,3.80
2017-09-08T16:55:59.464Z,2.93
2017-09-08T16:58:01.960Z,4.23
2017-09-08T17:00:04.443Z,5.50
2017-09-08T17:02:06.978Z,2.50
2017-09-08T17:04:09.489Z,3.73
2017-09-08T17:06:11.995Z,3.40
2017-09-08T17:08:14.564Z,3.20
2017-09-08T17:10:17.088Z,3.63
2017-09-08T17:12:19.688Z,2.80
2017-09-08T17:14:22.117Z,3.33
2017-09-08T17:16:24.550Z,3.13
2017-09-08T17:18:27.085Z,5.07
2017-09-08T17:20:29.608Z,4.00
2017-09-08T17:22:32.068Z,4.57
2017-09-08T17:24:34.599Z,5.03
2017-09-08T17:26:37.181Z,3.90
2017-09-08T17:28:39.701Z,2.93
2017-09-08T17:30:42.280Z,6.53
2017-09-08T17:32:44.780Z,3.03
2017-09-08T17:34:47.360Z,6.13
2017-09-08T17:36:49.871Z,3.43
2017-09-08T17:38:52.420Z,2.73
2017-09-08T17:40:54.974Z,9.23
2017-09-08T17:42:57.547Z,7.23
2017-09-08T17:45:00.221Z,1.90
2017-09-08T17:47:02.795Z,4.57
2017-09-08T17:49:05.239Z,2.23
2017-09-08T17:51:07.742Z,2.77
2017-09-08T17:53:10.287Z,4.40
2017-09-08T17:55:12.768Z,5.77
2017-09-08T17:57:15.199Z,3.83
2017-09-08T17:59:17.655Z,4.40
2017-09-08T18:01:20.446Z,2.30
2017-09-08T18:03:22.956Z,3.67
2017-09-08T18:05:25.468Z,5.97
2017-09-08T18:07:27.993Z,2.30
2017-09-08T18:09:30.417Z,2.70
2017-09-08T18:11:32.900Z,3.53
2017-09-08T18:13:35.877Z,8.20
2017-09-08T18:15:38.321Z,5.50
2017-09-08T18:17:40.895Z,2.57
2017-09-08T18:19:43.348Z,3.00
2017-09-08T18:21:45.924Z,3.53
2017-09-08T18:23:48.401Z,4.30
2017-09-08T18:25:50.906Z,2.60
2017-09-08T18:27:53.452Z,3.57
2017-09-08T18:29:56.003Z,2.97
2017-09-08T18:31:58.504Z,3.83
2017-09-08T18:34:00.942Z,2.77
2017-09-08T18:36:03.432Z,2.23
2017-09-08T18:38:05.937Z,3.03
2017-09-08T18:40:08.384Z,3.80
2017-09-08T18:42:10.892Z,3.33
2017-09-08T18:44:13.400Z,2.10
2017-09-08T18:46:16.001Z,3.70
2017-09-08T18:48:18.479Z,2.90
2017-09-08T18:50:21.065Z,4.90
2017-09-08T18:52:23.750Z,1.93
2017-09-08T18:54:26.463Z,4.23
2017-09-08T18:56:28.992Z,2.50
2017-09-08T18:58:31.504Z,6.50
2017-09-08T19:00:33.998Z,1.90
2017-09-08T19:02:38.337Z,4.07
2017-09-08T19:04:41.646Z,4.67
2017-09-08T19:06:44.195Z,3.50
2017-09-08T19:08:46.742Z,3.10
2017-09-08T19:10:50.093Z,4.07
2017-09-08T19:12:52.644Z,5.73
2017-09-08T19:14:55.462Z,2.70
2017-09-08T19:16:57.968Z,4.03
2017-09-08T19:19:00.438Z,2.10
2017-09-08T19:21:02.916Z,6.17
2017-09-08T19:23:05.451Z,3.57
2017-09-08T19:25:08.013Z,2.80
2017-09-08T19:27:10.486Z,2.40
2017-09-08T19:29:13.003Z,4.30
2017-09-08T19:31:15.532Z,3.00
2017-09-08T19:33:17.998Z,4.80
2017-09-08T19:35:20.524Z,3.20
2017-09-08T19:37:23.140Z,4.77
2017-09-08T19:39:25.718Z,3.90
2017-09-08T19:41:28.176Z,7.70
2017-09-08T19:43:30.621Z,3.03
2017-09-08T19:45:33.077Z,3.93
2017-09-08T19:47:35.570Z,3.10
2017-09-08T19:49:38.112Z,2.90
2017-09-08T19:51:40.645Z,2.47
2017-09-08T19:53:43.077Z,3.37
2017-09-08T19:55:45.629Z,4.70
2017-09-08T19:57:48.219Z,4.03
2017-09-08T19:59:50.657Z,2.57
2017-09-08T20:01:53.099Z,2.33
2017-09-08T20:03:55.705Z,2.73
2017-09-08T20:05:58.179Z,4.37
2017-09-08T20:08:00.624Z,2.43
2017-09-08T20:10:03.094Z,3.40
2017-09-08T20:12:05.650Z,6.20
2017-09-08T20:14:08.141Z,2.53
2017-09-08T20:16:10.797Z,5.50
2017-09-08T20:18:13.233Z,4.10
2017-09-08T20:20:15.703Z,2.10
2017-09-08T20:22:18.368Z,3.33
2017-09-08T20:24:20.864Z,5.43
2017-09-08T20:26:23.435Z,2.70
2017-09-08T20:28:26.066Z,2.60
2017-09-08T20:30:28.563Z,3.90
2017-09-08T20:32:31.010Z,2.77
2017-09-08T20:34:33.553Z,1.97
2017-09-08T20:36:36.095Z,2.50
2017-09-08T20:38:38.539Z,3.80
2017-09-08T20:40:42.052Z,2.03
2017-09-08T20:42:44.548Z,2.23
2017-09-08T20:44:47.125Z,3.30
2017-09-08T20:46:49.756Z,5.90
2017-09-08T20:48:52.205Z,2.10
2017-09-08T20:50:54.637Z,4.30
2017-09-08T20:52:57.121Z,4.67
2017-09-08T20:54:59.567Z,2.70
2017-09-08T20:57:02.147Z,2.33
2017-09-08T20:59:04.615Z,2.57
2017-09-08T21:01:07.094Z,4.50
2017-09-08T21:03:09.524Z,4.10
2017-09-08T21:05:12.006Z,2.00
2017-09-08T21:07:14.440Z,2.50
2017-09-08T21:09:16.935Z,2.20
2017-09-08T21:11:19.440Z,2.00
2017-09-08T21:13:21.992Z,2.43
2017-09-08T21:15:24.432Z,2.70
2017-09-08T21:17:27.079Z,2.77
2017-09-08T21:19:29.604Z,2.57
2017-09-08T21:21:32.096Z,3.20
2017-09-08T21:23:34.982Z,2.03
2017-09-08T21:25:37.423Z,2.17
2017-09-08T21:27:39.955Z,2.80
2017-09-08T21:29:42.464Z,2.40
2017-09-08T21:31:45.006Z,2.90
2017-09-08T21:33:47.483Z,1.50
2017-09-08T21:35:49.948Z,2.43
2017-09-08T21:37:52.416Z,2.53
2017-09-08T21:39:54.942Z,1.90
2017-09-08T21:41:57.437Z,3.57
2017-09-08T21:43:59.867Z,2.30
2017-09-08T21:46:02.429Z,3.03
2017-09-08T21:48:04.886Z,2.40
2017-09-08T21:50:07.348Z,3.13
2017-09-08T21:52:09.967Z,4.77
2017-09-08T21:54:12.495Z,2.90
2017-09-08T21:56:14.925Z,2.57
2017-09-08T21:58:17.476Z,4.90
2017-09-08T22:00:20.033Z,4.67
2017-09-08T22:02:22.660Z,3.50
2017-09-08T22:04:25.100Z,1.87
2017-09-08T22:06:27.672Z,2.77
2017-09-08T22:08:30.273Z,2.10
2017-09-08T22:10:32.704Z,1.90
2017-09-08T22:12:35.211Z,3.47
2017-09-08T22:14:37.792Z,4.97
2017-09-08T22:16:40.306Z,2.50
2017-09-08T22:18:42.898Z,2.10
2017-09-08T22:20:45.409Z,4.70
2017-09-08T22:22:47.849Z,2.37
2017-09-08T22:24:51.392Z,2.20
2017-09-08T22:26:53.828Z,3.17
2017-09-08T22:28:56.379Z,2.57
2017-09-08T22:30:58.948Z,2.73
2017-09-08T22:33:01.405Z,1.90
2017-09-08T22:35:03.895Z,3.97
2017-09-08T22:37:06.462Z,2.20
2017-09-08T22:39:08.892Z,2.00
2017-09-08T22:41:11.328Z,3.87
2017-09-08T22:43:13.782Z,3.83
2017-09-08T22:45:16.244Z,2.90
2017-09-08T22:47:18.712Z,2.13
2017-09-08T22:49:21.286Z,2.40
2017-09-08T22:51:23.802Z,6.97
2017-09-08T22:53:26.315Z,2.60
2017-09-08T22:55:28.932Z,2.10
2017-09-08T22:57:31.408Z,3.23
2017-09-08T22:59:34.014Z,3.90
2017-09-08T23:01:36.618Z,2.53
2017-09-08T23:03:39.048Z,4.70
2017-09-08T23:05:41.510Z,1.93
2017-09-08T23:07:43.998Z,2.63
2017-09-08T23:09:46.429Z,2.33
2017-09-08T23:11:48.861Z,3.87
2017-09-08T23:13:51.439Z,2.23
2017-09-08T23:15:53.868Z,3.93
2017-09-08T23:17:56.351Z,3.03
2017-09-08T23:19:59.056Z,3.80
2017-09-08T23:22:01.588Z,2.33
2017-09-08T23:24:04.225Z,5.63
2017-09-08T23:26:06.834Z,4.97
2017-09-08T23:28:09.292Z,2.30
2017-09-08T23:30:11.768Z,2.37
2017-09-08T23:32:14.228Z,2.53
2017-09-08T23:34:16.754Z,2.70
2017-09-08T23:36:19.276Z,2.30
2017-09-08T23:38:21.811Z,2.70
2017-09-08T23:40:24.267Z,2.60
2017-09-08T23:42:26.781Z,4.43
2017-09-08T23:44:29.346Z,2.37
2017-09-08T23:46:31.840Z,2.10
2017-09-08T23:48:34.353Z,2.83
2017-09-08T23:50:36.860Z,3.47
2017-09-08T23:52:39.283Z,2.67
2017-09-08T23:54:41.721Z,7.80
2017-09-08T23:56:44.282Z,7.23
2017-09-08T23:58:46.780Z,2.83
